sensor_id;sensor_type;location;lat;lon;timestamp;pressure;altitude;pressure_sealevel;temperature;humidity
20710;BME280;10516;51.518;9.864;2022-09-17T00:02:20;97997.41;;;11.93;75.96
20710;BME280;10516;51.518;9.864;2022-09-17T00:04:47;97993.28;;;12.11;75.27
20710;BME280;10516;51.518;9.864;2022-09-17T00:07:13;97995.22;;;12.00;75.72
20710;BME280;10516;51.518;9.864;2022-09-17T00:09:39;97963.59;;;11.74;75.88
20710;BME280;10516;51.518;9.864;2022-09-17T00:12:04;97991.44;;;12.07;75.31
20710;BME280;10516;51.518;9.864;2022-09-17T00:14:29;97986.13;;;12.01;75.35
20710;BME280;10516;51.518;9.864;2022-09-17T00:16:55;97980.94;;;11.76;76.29
20710;BME280;10516;51.518;9.864;2022-09-17T00:19:21;97996.66;;;11.88;76.71
20710;BME280;10516;51.518;9.864;2022-09-17T00:21:48;97984.75;;;12.09;75.17
20710;BME280;10516;51.518;9.864;2022-09-17T00:24:14;98006.56;;;11.82;76.58
20710;BME280;10516;51.518;9.864;2022-09-17T00:26:40;97967.59;;;11.71;76.58
20710;BME280;10516;51.518;9.864;2022-09-17T00:29:07;97980.94;;;11.76;76.29
20710;BME280;10516;51.518;9.864;2022-09-17T00:31:33;97986.25;;;12.20;75.46
20710;BME280;10516;51.518;9.864;2022-09-17T00:33:59;98005.31;;;11.65;77.41
20710;BME280;10516;51.518;9.864;2022-09-17T00:36:25;97977.19;;;11.77;76.27
20710;BME280;10516;51.518;9.864;2022-09-17T00:38:53;97990.00;;;11.80;77.10
20710;BME280;10516;51.518;9.864;2022-09-17T00:41:20;97973.56;;;11.53;77.35
20710;BME280;10516;51.518;9.864;2022-09-17T00:43:48;98003.91;;;11.82;77.27
20710;BME280;10516;51.518;9.864;2022-09-17T00:46:18;98007.06;;;11.94;76.86
20710;BME280;10516;51.518;9.864;2022-09-17T00:48:46;97970.31;;;11.61;77.50
20710;BME280;10516;51.518;9.864;2022-09-17T00:51:15;98004.94;;;11.86;77.46
20710;BME280;10516;51.518;9.864;2022-09-17T00:53:42;97959.63;;;11.61;77.26
20710;BME280;10516;51.518;9.864;2022-09-17T00:56:19;98006.25;;;11.94;77.18
20710;BME280;10516;51.518;9.864;2022-09-17T00:58:48;98009.50;;;12.25;75.95
20710;BME280;10516;51.518;9.864;2022-09-17T01:01:14;97994.84;;;11.78;77.26
20710;BME280;10516;51.518;9.864;2022-09-17T01:03:39;97977.25;;;11.72;77.41
20710;BME280;10516;51.518;9.864;2022-09-17T01:06:17;98007.59;;;11.91;77.57
20710;BME280;10516;51.518;9.864;2022-09-17T01:14:46;98015.16;;;11.79;78.30
20710;BME280;10516;51.518;9.864;2022-09-17T01:22:54;98009.50;;;12.25;76.61
20710;BME280;10516;51.518;9.864;2022-09-17T01:28:13;97994.97;;;11.97;77.32
20710;BME280;10516;51.518;9.864;2022-09-17T01:31:03;98022.09;;;12.19;76.89
20710;BME280;10516;51.518;9.864;2022-09-17T01:36:41;98020.72;;;11.88;78.25
20710;BME280;10516;51.518;9.864;2022-09-17T01:42:17;98036.19;;;11.96;78.44
20710;BME280;10516;51.518;9.864;2022-09-17T01:47:23;98001.84;;;11.69;78.96
20710;BME280;10516;51.518;9.864;2022-09-17T01:49:53;98004.59;;;11.98;77.69
20710;BME280;10516;51.518;9.864;2022-09-17T01:52:27;98004.50;;;11.74;78.45
20710;BME280;10516;51.518;9.864;2022-09-17T01:55:03;98032.09;;;12.03;77.97
20710;BME280;10516;51.518;9.864;2022-09-17T01:57:46;98033.13;;;12.13;77.61
20710;BME280;10516;51.518;9.864;2022-09-17T02:00:15;98033.81;;;11.89;78.05
20710;BME280;10516;51.518;9.864;2022-09-17T02:02:47;98037.75;;;11.97;78.25
20710;BME280;10516;51.518;9.864;2022-09-17T02:05:34;98018.72;;;12.09;77.27
20710;BME280;10516;51.518;9.864;2022-09-17T02:08:07;98024.38;;;11.97;78.08
20710;BME280;10516;51.518;9.864;2022-09-17T02:10:36;98041.44;;;12.11;78.35
20710;BME280;10516;51.518;9.864;2022-09-17T02:13:16;98048.91;;;12.14;77.39
20710;BME280;10516;51.518;9.864;2022-09-17T02:15:49;98025.47;;;11.96;78.24
20710;BME280;10516;51.518;9.864;2022-09-17T02:18:47;98047.63;;;12.01;78.24
20710;BME280;10516;51.518;9.864;2022-09-17T02:21:24;98042.63;;;11.90;78.95
20710;BME280;10516;51.518;9.864;2022-09-17T02:24:06;98031.38;;;11.93;78.58
20710;BME280;10516;51.518;9.864;2022-09-17T02:26:39;98023.03;;;12.04;78.18
20710;BME280;10516;51.518;9.864;2022-09-17T02:29:14;98011.31;;;11.90;77.96
20710;BME280;10516;51.518;9.864;2022-09-17T02:31:43;98038.34;;;12.28;77.44
20710;BME280;10516;51.518;9.864;2022-09-17T02:34:08;98039.69;;;11.91;78.91
20710;BME280;10516;51.518;9.864;2022-09-17T02:36:35;98021.34;;;11.65;80.13
20710;BME280;10516;51.518;9.864;2022-09-17T02:39:03;98041.25;;;11.97;78.52
20710;BME280;10516;51.518;9.864;2022-09-17T02:41:41;98045.75;;;12.02;78.50
20710;BME280;10516;51.518;9.864;2022-09-17T02:55:06;98045.00;;;11.96;78.66
20710;BME280;10516;51.518;9.864;2022-09-17T02:58:08;98041.81;;;11.94;78.82
20710;BME280;10516;51.518;9.864;2022-09-17T03:00:39;98038.13;;;11.85;78.64
20710;BME280;10516;51.518;9.864;2022-09-17T03:03:10;98043.59;;;12.04;77.90
20710;BME280;10516;51.518;9.864;2022-09-17T03:05:38;98052.09;;;11.67;80.10
20710;BME280;10516;51.518;9.864;2022-09-17T03:08:07;98049.44;;;12.11;77.74
20710;BME280;10516;51.518;9.864;2022-09-17T03:10:33;98055.09;;;12.10;77.71
20710;BME280;10516;51.518;9.864;2022-09-17T03:12:59;98033.28;;;11.92;77.60
20710;BME280;10516;51.518;9.864;2022-09-17T03:15:25;98056.94;;;12.14;77.48
20710;BME280;10516;51.518;9.864;2022-09-17T03:17:51;98032.84;;;11.70;78.17
20710;BME280;10516;51.518;9.864;2022-09-17T03:20:16;98029.00;;;11.86;77.25
20710;BME280;10516;51.518;9.864;2022-09-17T03:22:42;98059.22;;;11.87;77.68
20710;BME280;10516;51.518;9.864;2022-09-17T03:25:08;98045.47;;;11.45;78.84
20710;BME280;10516;51.518;9.864;2022-09-17T03:27:33;98055.84;;;11.61;79.54
20710;BME280;10516;51.518;9.864;2022-09-17T03:29:59;98033.56;;;11.86;77.20
20710;BME280;10516;51.518;9.864;2022-09-17T03:32:24;98062.50;;;12.23;76.36
20710;BME280;10516;51.518;9.864;2022-09-17T03:34:50;98043.03;;;11.68;79.00
20710;BME280;10516;51.518;9.864;2022-09-17T03:37:15;98063.72;;;11.96;78.20
20710;BME280;10516;51.518;9.864;2022-09-17T03:39:41;98078.34;;;11.45;80.76
20710;BME280;10516;51.518;9.864;2022-09-17T03:42:06;98070.84;;;11.47;81.21
20710;BME280;10516;51.518;9.864;2022-09-17T03:44:32;98077.22;;;11.61;79.59
20710;BME280;10516;51.518;9.864;2022-09-17T03:46:57;98085.75;;;11.78;79.02
20710;BME280;10516;51.518;9.864;2022-09-17T03:49:23;98076.50;;;12.10;77.84
20710;BME280;10516;51.518;9.864;2022-09-17T03:51:48;98082.03;;;11.74;79.03
20710;BME280;10516;51.518;9.864;2022-09-17T03:54:14;98089.03;;;11.55;80.36
20710;BME280;10516;51.518;9.864;2022-09-17T03:56:39;98042.22;;;11.58;79.08
20710;BME280;10516;51.518;9.864;2022-09-17T03:59:05;98088.47;;;11.58;80.40
20710;BME280;10516;51.518;9.864;2022-09-17T04:01:30;98089.22;;;11.74;79.72
20710;BME280;10516;51.518;9.864;2022-09-17T04:03:56;98083.41;;;11.57;80.19
20710;BME280;10516;51.518;9.864;2022-09-17T04:06:21;98079.34;;;11.69;79.43
20710;BME280;10516;51.518;9.864;2022-09-17T04:08:46;98096.88;;;12.00;78.38
20710;BME280;10516;51.518;9.864;2022-09-17T04:11:12;98095.84;;;11.91;78.43
20710;BME280;10516;51.518;9.864;2022-09-17T04:13:38;98031.50;;;11.63;77.74
20710;BME280;10516;51.518;9.864;2022-09-17T04:16:03;98030.59;;;11.18;80.04
20710;BME280;10516;51.518;9.864;2022-09-17T04:18:29;98091.41;;;11.62;80.29
20710;BME280;10516;51.518;9.864;2022-09-17T04:20:55;98040.91;;;11.55;78.69
20710;BME280;10516;51.518;9.864;2022-09-17T04:23:20;98101.81;;;11.63;80.38
20710;BME280;10516;51.518;9.864;2022-09-17T04:25:46;98109.22;;;11.91;79.03
20710;BME280;10516;51.518;9.864;2022-09-17T04:28:12;98097.00;;;11.70;79.40
20710;BME280;10516;51.518;9.864;2022-09-17T04:30:37;98120.47;;;11.83;79.48
20710;BME280;10516;51.518;9.864;2022-09-17T04:33:03;98118.41;;;11.70;79.54
20710;BME280;10516;51.518;9.864;2022-09-17T04:35:29;98097.34;;;11.33;80.94
20710;BME280;10516;51.518;9.864;2022-09-17T04:37:56;98120.72;;;11.92;79.33
20710;BME280;10516;51.518;9.864;2022-09-17T04:40:23;98113.00;;;11.80;79.62
20710;BME280;10516;51.518;9.864;2022-09-17T04:42:52;98112.00;;;11.56;80.13
20710;BME280;10516;51.518;9.864;2022-09-17T04:45:17;98103.25;;;11.25;81.13
20710;BME280;10516;51.518;9.864;2022-09-17T04:47:43;98121.31;;;11.69;79.92
20710;BME280;10516;51.518;9.864;2022-09-17T04:50:08;98085.31;;;11.41;79.71
20710;BME280;10516;51.518;9.864;2022-09-17T04:52:34;98106.69;;;11.36;79.87
20710;BME280;10516;51.518;9.864;2022-09-17T04:54:59;98127.19;;;11.76;79.10
20710;BME280;10516;51.518;9.864;2022-09-17T04:57:25;98117.41;;;11.21;80.53
20710;BME280;10516;51.518;9.864;2022-09-17T04:59:51;98132.88;;;11.44;79.64
20710;BME280;10516;51.518;9.864;2022-09-17T05:02:17;98103.53;;;11.19;80.14
20710;BME280;10516;51.518;9.864;2022-09-17T05:04:42;98124.78;;;11.64;78.87
20710;BME280;10516;51.518;9.864;2022-09-17T05:07:07;98132.25;;;11.82;77.98
20710;BME280;10516;51.518;9.864;2022-09-17T05:09:33;98152.16;;;11.31;79.78
20710;BME280;10516;51.518;9.864;2022-09-17T05:11:58;98127.50;;;11.59;78.57
20710;BME280;10516;51.518;9.864;2022-09-17T05:14:24;98139.84;;;11.25;80.14
20710;BME280;10516;51.518;9.864;2022-09-17T05:16:49;98134.22;;;11.37;79.56
20710;BME280;10516;51.518;9.864;2022-09-17T05:19:14;98152.63;;;11.48;79.22
20710;BME280;10516;51.518;9.864;2022-09-17T05:21:40;98150.75;;;11.59;79.06
20710;BME280;10516;51.518;9.864;2022-09-17T05:24:05;98145.41;;;11.59;78.96
20710;BME280;10516;51.518;9.864;2022-09-17T05:26:31;98157.41;;;11.56;78.50
20710;BME280;10516;51.518;9.864;2022-09-17T05:28:56;98146.44;;;11.63;78.58
20710;BME280;10516;51.518;9.864;2022-09-17T05:31:21;98151.88;;;11.38;79.88
20710;BME280;10516;51.518;9.864;2022-09-17T05:33:47;98171.81;;;11.80;78.08
20710;BME280;10516;51.518;9.864;2022-09-17T05:36:12;98139.81;;;11.45;78.53
20710;BME280;10516;51.518;9.864;2022-09-17T05:38:37;98163.56;;;11.62;78.32
20710;BME280;10516;51.518;9.864;2022-09-17T05:41:04;98168.91;;;11.62;78.46
20710;BME280;10516;51.518;9.864;2022-09-17T05:43:31;98158.78;;;11.33;78.78
20710;BME280;10516;51.518;9.864;2022-09-17T05:46:02;98177.72;;;11.62;78.24
20710;BME280;10516;51.518;9.864;2022-09-17T05:48:28;98170.25;;;11.54;78.27
20710;BME280;10516;51.518;9.864;2022-09-17T05:50:54;98179.59;;;11.67;78.57
20710;BME280;10516;51.518;9.864;2022-09-17T05:53:19;98183.13;;;11.27;79.08
20710;BME280;10516;51.518;9.864;2022-09-17T05:55:48;98197.78;;;11.60;78.94
20710;BME280;10516;51.518;9.864;2022-09-17T05:58:16;98201.28;;;11.70;78.20
20710;BME280;10516;51.518;9.864;2022-09-17T06:00:43;98195.59;;;11.82;77.59
20710;BME280;10516;51.518;9.864;2022-09-17T06:03:13;98181.78;;;11.40;78.80
20710;BME280;10516;51.518;9.864;2022-09-17T06:05:39;98194.88;;;11.41;79.30
20710;BME280;10516;51.518;9.864;2022-09-17T06:08:05;98182.00;;;11.58;77.95
20710;BME280;10516;51.518;9.864;2022-09-17T06:10:31;98176.19;;;11.06;80.03
20710;BME280;10516;51.518;9.864;2022-09-17T06:12:59;98184.16;;;11.51;78.37
20710;BME280;10516;51.518;9.864;2022-09-17T06:15:26;98178.03;;;11.51;78.34
20710;BME280;10516;51.518;9.864;2022-09-17T06:17:51;98176.13;;;11.56;78.11
20710;BME280;10516;51.518;9.864;2022-09-17T06:20:18;98174.56;;;11.30;78.66
20710;BME280;10516;51.518;9.864;2022-09-17T06:22:43;98184.16;;;11.51;78.29
20710;BME280;10516;51.518;9.864;2022-09-17T06:25:09;98186.00;;;11.56;78.23
20710;BME280;10516;51.518;9.864;2022-09-17T06:27:34;98097.16;;;11.00;77.54
20710;BME280;10516;51.518;9.864;2022-09-17T06:30:01;98197.00;;;11.39;78.32
20710;BME280;10516;51.518;9.864;2022-09-17T06:32:27;98196.69;;;11.76;77.30
20710;BME280;10516;51.518;9.864;2022-09-17T06:34:53;98163.38;;;11.18;79.12
20710;BME280;10516;51.518;9.864;2022-09-17T06:37:20;98172.69;;;11.51;77.93
20710;BME280;10516;51.518;9.864;2022-09-17T06:39:51;98186.56;;;11.68;78.23
20710;BME280;10516;51.518;9.864;2022-09-17T06:42:16;98204.19;;;11.64;78.35
20710;BME280;10516;51.518;9.864;2022-09-17T06:44:41;98179.09;;;11.55;78.41
20710;BME280;10516;51.518;9.864;2022-09-17T06:47:07;98145.91;;;11.61;77.47
20710;BME280;10516;51.518;9.864;2022-09-17T06:49:32;98212.50;;;11.57;79.61
20710;BME280;10516;51.518;9.864;2022-09-17T06:51:57;98204.16;;;11.84;78.43
20710;BME280;10516;51.518;9.864;2022-09-17T06:54:23;98221.56;;;11.61;79.07
20710;BME280;10516;51.518;9.864;2022-09-17T06:56:48;98218.38;;;11.59;78.56
20710;BME280;10516;51.518;9.864;2022-09-17T06:59:13;98219.94;;;11.75;78.71
20710;BME280;10516;51.518;9.864;2022-09-17T07:01:39;98209.50;;;11.89;77.55
20710;BME280;10516;51.518;9.864;2022-09-17T07:04:04;98186.00;;;11.56;78.47
20710;BME280;10516;51.518;9.864;2022-09-17T07:06:30;98213.81;;;11.60;79.14
20710;BME280;10516;51.518;9.864;2022-09-17T07:08:55;98205.75;;;11.85;78.14
20710;BME280;10516;51.518;9.864;2022-09-17T07:11:21;98190.28;;;11.77;77.86
20710;BME280;10516;51.518;9.864;2022-09-17T07:13:47;98220.19;;;11.84;78.10
20710;BME280;10516;51.518;9.864;2022-09-17T07:16:12;98222.28;;;12.07;77.62
20710;BME280;10516;51.518;9.864;2022-09-17T07:18:38;98200.88;;;12.07;76.44
20710;BME280;10516;51.518;9.864;2022-09-17T07:21:05;98221.13;;;12.28;76.78
20710;BME280;10516;51.518;9.864;2022-09-17T07:23:32;98213.56;;;11.56;78.31
20710;BME280;10516;51.518;9.864;2022-09-17T07:26:03;98214.19;;;12.27;76.60
20710;BME280;10516;51.518;9.864;2022-09-17T07:28:29;98225.19;;;12.16;77.33
20710;BME280;10516;51.518;9.864;2022-09-17T07:30:55;98219.03;;;12.15;77.59
20710;BME280;10516;51.518;9.864;2022-09-17T07:33:24;98230.00;;;12.19;77.32
20710;BME280;10516;51.518;9.864;2022-09-17T07:36:16;98216.88;;;12.22;77.10
20710;BME280;10516;51.518;9.864;2022-09-17T07:38:42;98217.69;;;12.18;77.05
20710;BME280;10516;51.518;9.864;2022-09-17T07:41:12;98224.91;;;12.22;77.22
20710;BME280;10516;51.518;9.864;2022-09-17T07:43:38;98206.47;;;12.11;77.42
20710;BME280;10516;51.518;9.864;2022-09-17T07:46:06;98221.47;;;12.01;77.50
20710;BME280;10516;51.518;9.864;2022-09-17T07:48:33;98224.81;;;12.37;76.97
20710;BME280;10516;51.518;9.864;2022-09-17T07:50:58;98225.19;;;12.21;77.00
20710;BME280;10516;51.518;9.864;2022-09-17T07:53:24;98226.47;;;12.28;77.58
20710;BME280;10516;51.518;9.864;2022-09-17T07:55:53;98225.06;;;12.41;76.68
20710;BME280;10516;51.518;9.864;2022-09-17T07:58:20;98230.13;;;12.47;76.34
20710;BME280;10516;51.518;9.864;2022-09-17T08:00:46;98202.38;;;12.33;76.33
20710;BME280;10516;51.518;9.864;2022-09-17T08:03:13;98189.44;;;11.91;77.51
20710;BME280;10516;51.518;9.864;2022-09-17T08:05:38;98227.25;;;12.34;77.12
20710;BME280;10516;51.518;9.864;2022-09-17T08:08:03;98220.59;;;12.26;76.68
20710;BME280;10516;51.518;9.864;2022-09-17T08:10:29;98223.41;;;12.55;75.92
20710;BME280;10516;51.518;9.864;2022-09-17T08:12:56;98212.34;;;12.13;76.23
20710;BME280;10516;51.518;9.864;2022-09-17T08:15:22;98235.97;;;12.54;76.08
20710;BME280;10516;51.518;9.864;2022-09-17T08:17:49;98206.28;;;12.51;75.39
20710;BME280;10516;51.518;9.864;2022-09-17T08:20:15;98218.59;;;12.52;75.23
20710;BME280;10516;51.518;9.864;2022-09-17T08:22:41;98213.31;;;12.37;75.51
20710;BME280;10516;51.518;9.864;2022-09-17T08:25:08;98221.38;;;12.32;75.80
20710;BME280;10516;51.518;9.864;2022-09-17T08:27:34;98234.31;;;12.63;74.47
20710;BME280;10516;51.518;9.864;2022-09-17T08:30:00;98226.16;;;12.35;74.50
20710;BME280;10516;51.518;9.864;2022-09-17T08:32:28;98230.13;;;12.47;74.96
20710;BME280;10516;51.518;9.864;2022-09-17T08:34:54;98221.19;;;12.13;75.15
20710;BME280;10516;51.518;9.864;2022-09-17T08:37:19;98222.75;;;12.24;74.81
20710;BME280;10516;51.518;9.864;2022-09-17T08:39:45;98203.78;;;12.16;74.26
20710;BME280;10516;51.518;9.864;2022-09-17T08:42:29;98209.28;;;12.44;73.58
20710;BME280;10516;51.518;9.864;2022-09-17T08:44:57;98205.03;;;12.33;73.64
20710;BME280;10516;51.518;9.864;2022-09-17T08:47:33;98226.69;;;12.42;74.07
20710;BME280;10516;51.518;9.864;2022-09-17T08:50:02;98233.41;;;12.34;74.59
20710;BME280;10516;51.518;9.864;2022-09-17T08:55:10;98224.53;;;12.44;72.95
20710;BME280;10516;51.518;9.864;2022-09-17T09:00:22;98227.19;;;12.44;72.75
20710;BME280;10516;51.518;9.864;2022-09-17T09:05:46;98228.53;;;12.41;72.60
20710;BME280;10516;51.518;9.864;2022-09-17T09:08:25;98234.69;;;12.47;72.53
20710;BME280;10516;51.518;9.864;2022-09-17T09:10:59;98230.41;;;12.41;72.38
20710;BME280;10516;51.518;9.864;2022-09-17T09:13:28;98236.81;;;12.50;72.49
20710;BME280;10516;51.518;9.864;2022-09-17T09:16:01;98237.00;;;12.63;71.72
20710;BME280;10516;51.518;9.864;2022-09-17T09:18:35;98241.28;;;12.64;71.59
20710;BME280;10516;51.518;9.864;2022-09-17T09:23:56;98252.41;;;12.38;72.13
20710;BME280;10516;51.518;9.864;2022-09-17T09:26:45;98245.03;;;12.68;71.15
20710;BME280;10516;51.518;9.864;2022-09-17T09:34:21;98229.41;;;12.75;71.04
20710;BME280;10516;51.518;9.864;2022-09-17T09:36:48;98237.91;;;12.93;70.31
20710;BME280;10516;51.518;9.864;2022-09-17T09:39:27;98236.75;;;12.60;71.48
20710;BME280;10516;51.518;9.864;2022-09-17T09:44:43;98235.25;;;12.88;70.52
20710;BME280;10516;51.518;9.864;2022-09-17T09:47:18;98244.72;;;12.70;71.98
20710;BME280;10516;51.518;9.864;2022-09-17T09:55:48;98256.13;;;12.37;68.76
20710;BME280;10516;51.518;9.864;2022-09-17T10:01:00;98255.97;;;12.67;67.89
20710;BME280;10516;51.518;9.864;2022-09-17T10:03:31;98257.13;;;13.00;67.80
20710;BME280;10516;51.518;9.864;2022-09-17T10:05:57;98257.13;;;13.00;67.99
20710;BME280;10516;51.518;9.864;2022-09-17T10:08:24;98233.06;;;12.95;68.03
20710;BME280;10516;51.518;9.864;2022-09-17T10:11:02;98254.09;;;13.16;67.97
20710;BME280;10516;51.518;9.864;2022-09-17T10:13:33;98227.88;;;13.13;68.27
20710;BME280;10516;51.518;9.864;2022-09-17T10:19:34;98245.84;;;13.41;67.71
20710;BME280;10516;51.518;9.864;2022-09-17T10:24:02;98245.13;;;13.36;67.65
20710;BME280;10516;51.518;9.864;2022-09-17T10:26:31;98245.84;;;13.41;67.54
20710;BME280;10516;51.518;9.864;2022-09-17T10:28:59;98235.91;;;13.47;67.12
20710;BME280;10516;51.518;9.864;2022-09-17T10:31:26;98232.03;;;13.29;67.68
20710;BME280;10516;51.518;9.864;2022-09-17T10:34:01;98223.06;;;13.10;66.46
20710;BME280;10516;51.518;9.864;2022-09-17T10:42:13;98225.69;;;13.49;66.44
20710;BME280;10516;51.518;9.864;2022-09-17T10:44:59;98230.81;;;13.45;67.12
20710;BME280;10516;51.518;9.864;2022-09-17T10:47:30;98223.34;;;13.42;66.77
20710;BME280;10516;51.518;9.864;2022-09-17T10:50:16;98214.28;;;13.38;65.58
20710;BME280;10516;51.518;9.864;2022-09-17T10:52:50;98227.53;;;13.53;65.35
20710;BME280;10516;51.518;9.864;2022-09-17T10:55:36;98227.69;;;13.67;64.31
20710;BME280;10516;51.518;9.864;2022-09-17T11:00:43;98211.81;;;13.71;64.13
20710;BME280;10516;51.518;9.864;2022-09-17T11:14:50;98221.28;;;13.34;66.93
20710;BME280;10516;51.518;9.864;2022-09-17T11:20:02;98207.28;;;13.37;66.85
20710;BME280;10516;51.518;9.864;2022-09-17T11:28:20;98223.59;;;13.70;67.18
20710;BME280;10516;51.518;9.864;2022-09-17T11:31:19;98217.06;;;13.81;66.74
20710;BME280;10516;51.518;9.864;2022-09-17T11:36:30;98203.47;;;13.96;65.83
20710;BME280;10516;51.518;9.864;2022-09-17T11:39:08;98216.78;;;14.06;65.94
20710;BME280;10516;51.518;9.864;2022-09-17T11:41:41;98205.66;;;14.17;65.21
20710;BME280;10516;51.518;9.864;2022-09-17T11:44:14;98216.56;;;14.26;64.62
20710;BME280;10516;51.518;9.864;2022-09-17T11:46:44;98196.94;;;14.31;64.20
20710;BME280;10516;51.518;9.864;2022-09-17T11:49:35;98203.13;;;14.50;63.77
20710;BME280;10516;51.518;9.864;2022-09-17T11:55:36;98191.56;;;14.86;63.10
20710;BME280;10516;51.518;9.864;2022-09-17T12:01:06;98180.91;;;15.14;62.98
20710;BME280;10516;51.518;9.864;2022-09-17T12:03:38;98149.34;;;15.06;62.34
20710;BME280;10516;51.518;9.864;2022-09-17T12:06:14;98172.88;;;15.46;62.23
20710;BME280;10516;51.518;9.864;2022-09-17T12:08:53;98166.13;;;15.30;61.89
20710;BME280;10516;51.518;9.864;2022-09-17T12:11:29;98157.56;;;15.46;60.90
20710;BME280;10516;51.518;9.864;2022-09-17T12:14:04;98154.38;;;15.26;60.76
20710;BME280;10516;51.518;9.864;2022-09-17T12:16:35;98165.75;;;15.36;60.69
20710;BME280;10516;51.518;9.864;2022-09-17T12:21:56;98167.78;;;15.12;60.41
20710;BME280;10516;51.518;9.864;2022-09-17T12:24:26;98146.63;;;15.24;59.47
20710;BME280;10516;51.518;9.864;2022-09-17T12:27:19;98164.38;;;15.39;59.73
20710;BME280;10516;51.518;9.864;2022-09-17T12:30:01;98165.25;;;15.53;59.30
20710;BME280;10516;51.518;9.864;2022-09-17T12:57:22;98205.44;;;13.90;65.36
20710;BME280;10516;51.518;9.864;2022-09-17T12:59:52;98198.13;;;13.43;69.40
20710;BME280;10516;51.518;9.864;2022-09-17T13:22:21;98149.47;;;15.14;67.66
20710;BME280;10516;51.518;9.864;2022-09-17T13:24:47;98149.31;;;15.38;67.16
20710;BME280;10516;51.518;9.864;2022-09-17T13:27:25;98140.31;;;15.61;65.70
20710;BME280;10516;51.518;9.864;2022-09-17T13:37:44;98145.91;;;15.92;64.73
20710;BME280;10516;51.518;9.864;2022-09-17T13:40:34;98136.06;;;15.87;65.24
20710;BME280;10516;51.518;9.864;2022-09-17T13:45:28;98132.34;;;15.56;65.11
20710;BME280;10516;51.518;9.864;2022-09-17T13:48:02;98118.00;;;15.74;64.57
20710;BME280;10516;51.518;9.864;2022-09-17T13:50:40;98106.69;;;15.31;65.77
20710;BME280;10516;51.518;9.864;2022-09-17T13:58:21;98104.09;;;15.40;65.98
20710;BME280;10516;51.518;9.864;2022-09-17T14:01:03;98103.81;;;15.41;66.08
20710;BME280;10516;51.518;9.864;2022-09-17T14:11:38;98123.19;;;15.25;66.21
20710;BME280;10516;51.518;9.864;2022-09-17T14:19:27;98124.03;;;14.93;65.78
20710;BME280;10516;51.518;9.864;2022-09-17T14:22:02;98117.34;;;14.90;65.56
20710;BME280;10516;51.518;9.864;2022-09-17T14:24:48;98124.34;;;15.05;64.90
20710;BME280;10516;51.518;9.864;2022-09-17T14:27:40;98121.03;;;14.94;64.70
20710;BME280;10516;51.518;9.864;2022-09-17T14:30:17;98126.66;;;15.12;65.31
20710;BME280;10516;51.518;9.864;2022-09-17T14:35:25;98109.66;;;14.84;64.31
20710;BME280;10516;51.518;9.864;2022-09-17T14:37:59;98118.09;;;15.10;64.08
20710;BME280;10516;51.518;9.864;2022-09-17T14:40:27;98105.06;;;15.17;63.82
20710;BME280;10516;51.518;9.864;2022-09-17T14:42:57;98078.38;;;15.07;63.97
20710;BME280;10516;51.518;9.864;2022-09-17T14:45:26;98118.44;;;14.89;62.22
20710;BME280;10516;51.518;9.864;2022-09-17T14:48:18;98103.34;;;14.93;61.95
20710;BME280;10516;51.518;9.864;2022-09-17T14:50:45;98101.41;;;14.80;61.99
20710;BME280;10516;51.518;9.864;2022-09-17T14:53:16;98102.09;;;15.32;62.20
20710;BME280;10516;51.518;9.864;2022-09-17T14:55:46;98121.47;;;15.47;60.91
20710;BME280;10516;51.518;9.864;2022-09-17T14:58:32;98104.88;;;15.13;60.68
20710;BME280;10516;51.518;9.864;2022-09-17T15:00:59;98116.94;;;15.16;58.80
20710;BME280;10516;51.518;9.864;2022-09-17T15:03:25;98125.50;;;15.31;59.21
20710;BME280;10516;51.518;9.864;2022-09-17T15:05:50;98105.56;;;15.19;58.82
20710;BME280;10516;51.518;9.864;2022-09-17T15:08:22;98125.88;;;15.25;60.49
20710;BME280;10516;51.518;9.864;2022-09-17T15:13:25;98116.97;;;15.43;59.07
20710;BME280;10516;51.518;9.864;2022-09-17T15:16:04;98128.34;;;15.53;59.07
20710;BME280;10516;51.518;9.864;2022-09-17T15:18:58;98148.06;;;15.49;60.03
20710;BME280;10516;51.518;9.864;2022-09-17T15:21:37;98131.53;;;15.10;59.99
20710;BME280;10516;51.518;9.864;2022-09-17T15:24:11;98129.53;;;15.01;60.31
20710;BME280;10516;51.518;9.864;2022-09-17T15:26:42;98121.66;;;15.05;61.27
20710;BME280;10516;51.518;9.864;2022-09-17T15:29:13;98128.56;;;15.11;61.13
20710;BME280;10516;51.518;9.864;2022-09-17T15:31:38;98116.91;;;14.83;62.01
20710;BME280;10516;51.518;9.864;2022-09-17T15:34:04;98106.78;;;14.80;61.47
20710;BME280;10516;51.518;9.864;2022-09-17T15:36:29;98121.72;;;14.86;62.22
20710;BME280;10516;51.518;9.864;2022-09-17T15:38:56;98115.91;;;14.79;61.76
20710;BME280;10516;51.518;9.864;2022-09-17T15:41:34;98117.78;;;14.97;61.49
20710;BME280;10516;51.518;9.864;2022-09-17T15:44:21;98112.16;;;15.40;60.52
20710;BME280;10516;51.518;9.864;2022-09-17T15:46:47;98121.13;;;15.22;61.07
20710;BME280;10516;51.518;9.864;2022-09-17T15:49:32;98125.06;;;15.11;61.61
20710;BME280;10516;51.518;9.864;2022-09-17T15:52:25;98140.59;;;14.81;61.04
20710;BME280;10516;51.518;9.864;2022-09-17T15:54:52;98115.69;;;14.20;61.80
20710;BME280;10516;51.518;9.864;2022-09-17T15:57:20;98119.69;;;14.04;59.41
20710;BME280;10516;51.518;9.864;2022-09-17T15:59:47;98113.50;;;14.46;60.47
20710;BME280;10516;51.518;9.864;2022-09-17T16:02:28;98115.13;;;14.23;59.69
20710;BME280;10516;51.518;9.864;2022-09-17T16:07:43;98115.13;;;14.42;60.37
20710;BME280;10516;51.518;9.864;2022-09-17T16:10:10;98123.22;;;13.99;59.57
20710;BME280;10516;51.518;9.864;2022-09-17T16:12:36;98133.31;;;14.07;59.14
20710;BME280;10516;51.518;9.864;2022-09-17T16:15:02;98125.22;;;14.31;60.88
20710;BME280;10516;51.518;9.864;2022-09-17T16:17:40;98136.03;;;14.26;60.83
20710;BME280;10516;51.518;9.864;2022-09-17T16:22:39;98143.13;;;14.17;60.59
20710;BME280;10516;51.518;9.864;2022-09-17T16:25:05;98150.16;;;14.13;60.20
20710;BME280;10516;51.518;9.864;2022-09-17T16:27:38;98137.53;;;13.71;60.88